sensor_id;sensor_type;location;lat;lon;timestamp;temperature;humidity
9975;DHT22;5028;50.974;4.968;2023-10-08T00:01:10;16.10;99.90
9975;DHT22;5028;50.974;4.968;2023-10-08T00:03:42;16.10;99.90
9975;DHT22;5028;50.974;4.968;2023-10-08T00:06:16;16.10;99.90
9975;DHT22;5028;50.974;4.968;2023-10-08T00:08:51;16.10;99.90
9975;DHT22;5028;50.974;4.968;2023-10-08T00:11:27;16.00;99.90
9975;DHT22;5028;50.974;4.968;2023-10-08T00:13:57;16.00;99.90
9975;DHT22;5028;50.974;4.968;2023-10-08T00:16:28;16.00;99.90
9975;DHT22;5028;50.974;4.968;2023-10-08T00:18:58;15.90;99.90
9975;DHT22;5028;50.974;4.968;2023-10-08T00:21:27;15.90;99.90
9975;DHT22;5028;50.974;4.968;2023-10-08T00:24:02;15.90;99.90
9975;DHT22;5028;50.974;4.968;2023-10-08T00:26:33;15.90;99.90
9975;DHT22;5028;50.974;4.968;2023-10-08T00:29:08;15.90;99.90
9975;DHT22;5028;50.974;4.968;2023-10-08T00:31:44;15.90;99.90
9975;DHT22;5028;50.974;4.968;2023-10-08T00:34:13;15.90;99.90
9975;DHT22;5028;50.974;4.968;2023-10-08T00:36:43;15.90;99.90
9975;DHT22;5028;50.974;4.968;2023-10-08T00:39:14;15.90;99.90
9975;DHT22;5028;50.974;4.968;2023-10-08T00:41:51;15.80;99.90
9975;DHT22;5028;50.974;4.968;2023-10-08T00:44:26;15.80;99.90
9975;DHT22;5028;50.974;4.968;2023-10-08T00:46:57;15.80;99.90
9975;DHT22;5028;50.974;4.968;2023-10-08T00:49:29;15.80;99.90
9975;DHT22;5028;50.974;4.968;2023-10-08T00:52:15;15.70;99.90
9975;DHT22;5028;50.974;4.968;2023-10-08T00:54:59;15.70;99.90
9975;DHT22;5028;50.974;4.968;2023-10-08T00:57:41;15.70;99.90
9975;DHT22;5028;50.974;4.968;2023-10-08T01:00:14;15.60;99.90
9975;DHT22;5028;50.974;4.968;2023-10-08T01:02:48;15.60;99.90
9975;DHT22;5028;50.974;4.968;2023-10-08T01:05:22;15.50;99.90
9975;DHT22;5028;50.974;4.968;2023-10-08T01:07:55;15.50;99.90
9975;DHT22;5028;50.974;4.968;2023-10-08T01:10:27;15.50;99.90
9975;DHT22;5028;50.974;4.968;2023-10-08T01:12:57;15.40;99.90
9975;DHT22;5028;50.974;4.968;2023-10-08T01:15:34;15.40;99.90
9975;DHT22;5028;50.974;4.968;2023-10-08T01:18:05;15.40;99.90
9975;DHT22;5028;50.974;4.968;2023-10-08T01:20:42;15.40;99.90
9975;DHT22;5028;50.974;4.968;2023-10-08T01:23:21;15.40;99.90
9975;DHT22;5028;50.974;4.968;2023-10-08T01:25:54;15.40;99.90
9975;DHT22;5028;50.974;4.968;2023-10-08T01:28:38;15.40;99.90
9975;DHT22;5028;50.974;4.968;2023-10-08T01:31:07;15.40;99.90
9975;DHT22;5028;50.974;4.968;2023-10-08T01:33:40;15.40;99.90
9975;DHT22;5028;50.974;4.968;2023-10-08T01:36:17;15.40;99.90
9975;DHT22;5028;50.974;4.968;2023-10-08T01:38:47;15.40;99.90
9975;DHT22;5028;50.974;4.968;2023-10-08T01:41:16;15.40;99.90
9975;DHT22;5028;50.974;4.968;2023-10-08T01:43:56;15.40;99.90
9975;DHT22;5028;50.974;4.968;2023-10-08T01:46:25;15.40;99.90
9975;DHT22;5028;50.974;4.968;2023-10-08T01:48:55;15.30;99.90
9975;DHT22;5028;50.974;4.968;2023-10-08T01:51:31;15.30;99.90
9975;DHT22;5028;50.974;4.968;2023-10-08T01:54:08;15.30;99.90
9975;DHT22;5028;50.974;4.968;2023-10-08T01:56:39;15.20;99.90
9975;DHT22;5028;50.974;4.968;2023-10-08T01:59:09;15.20;99.90
9975;DHT22;5028;50.974;4.968;2023-10-08T02:01:39;15.30;99.90
9975;DHT22;5028;50.974;4.968;2023-10-08T02:04:08;15.30;99.90
9975;DHT22;5028;50.974;4.968;2023-10-08T02:06:39;15.30;99.90
9975;DHT22;5028;50.974;4.968;2023-10-08T02:09:10;15.30;99.90
9975;DHT22;5028;50.974;4.968;2023-10-08T02:11:45;15.30;99.90
9975;DHT22;5028;50.974;4.968;2023-10-08T02:14:13;15.30;99.90
9975;DHT22;5028;50.974;4.968;2023-10-08T02:16:43;15.30;99.90
9975;DHT22;5028;50.974;4.968;2023-10-08T02:19:12;15.20;99.90
9975;DHT22;5028;50.974;4.968;2023-10-08T02:21:45;15.20;99.90
9975;DHT22;5028;50.974;4.968;2023-10-08T02:24:16;15.20;99.90
9975;DHT22;5028;50.974;4.968;2023-10-08T02:26:44;15.20;99.90
9975;DHT22;5028;50.974;4.968;2023-10-08T02:29:13;15.20;99.90
9975;DHT22;5028;50.974;4.968;2023-10-08T02:31:42;15.10;99.90
9975;DHT22;5028;50.974;4.968;2023-10-08T02:34:11;15.10;99.90
9975;DHT22;5028;50.974;4.968;2023-10-08T02:36:41;15.10;99.90
9975;DHT22;5028;50.974;4.968;2023-10-08T02:39:10;15.10;99.90
9975;DHT22;5028;50.974;4.968;2023-10-08T02:41:46;15.10;99.90
9975;DHT22;5028;50.974;4.968;2023-10-08T02:44:16;15.10;99.90
9975;DHT22;5028;50.974;4.968;2023-10-08T02:46:45;15.10;99.90
9975;DHT22;5028;50.974;4.968;2023-10-08T02:49:16;15.10;99.90
9975;DHT22;5028;50.974;4.968;2023-10-08T02:51:48;15.10;99.90
9975;DHT22;5028;50.974;4.968;2023-10-08T02:54:18;15.10;99.90
9975;DHT22;5028;50.974;4.968;2023-10-08T02:56:53;15.10;99.90
9975;DHT22;5028;50.974;4.968;2023-10-08T02:59:28;15.00;99.90
9975;DHT22;5028;50.974;4.968;2023-10-08T03:02:06;15.00;99.90
9975;DHT22;5028;50.974;4.968;2023-10-08T03:04:41;15.00;99.90
9975;DHT22;5028;50.974;4.968;2023-10-08T03:07:12;15.00;99.90
9975;DHT22;5028;50.974;4.968;2023-10-08T03:09:50;15.00;99.90
9975;DHT22;5028;50.974;4.968;2023-10-08T03:12:31;15.00;99.90
9975;DHT22;5028;50.974;4.968;2023-10-08T03:15:02;14.90;99.90
9975;DHT22;5028;50.974;4.968;2023-10-08T03:17:40;14.90;99.90
9975;DHT22;5028;50.974;4.968;2023-10-08T03:20:16;14.80;99.90
9975;DHT22;5028;50.974;4.968;2023-10-08T03:23:06;14.80;99.90
9975;DHT22;5028;50.974;4.968;2023-10-08T03:25:40;14.80;99.90
9975;DHT22;5028;50.974;4.968;2023-10-08T03:28:11;14.80;99.90
9975;DHT22;5028;50.974;4.968;2023-10-08T03:30:43;14.80;99.90
9975;DHT22;5028;50.974;4.968;2023-10-08T03:33:18;14.80;99.90
9975;DHT22;5028;50.974;4.968;2023-10-08T03:35:51;14.70;99.90
9975;DHT22;5028;50.974;4.968;2023-10-08T03:38:23;14.80;99.90
9975;DHT22;5028;50.974;4.968;2023-10-08T03:41:06;14.80;99.90
9975;DHT22;5028;50.974;4.968;2023-10-08T03:43:37;14.80;99.90
9975;DHT22;5028;50.974;4.968;2023-10-08T03:46:14;14.70;99.90
9975;DHT22;5028;50.974;4.968;2023-10-08T03:48:43;14.70;99.90
9975;DHT22;5028;50.974;4.968;2023-10-08T03:51:12;14.70;99.90
9975;DHT22;5028;50.974;4.968;2023-10-08T03:53:41;14.70;99.90
9975;DHT22;5028;50.974;4.968;2023-10-08T03:56:26;14.70;99.90
9975;DHT22;5028;50.974;4.968;2023-10-08T03:58:58;14.70;99.90
9975;DHT22;5028;50.974;4.968;2023-10-08T04:01:30;14.70;99.90
9975;DHT22;5028;50.974;4.968;2023-10-08T04:04:01;14.60;99.90
9975;DHT22;5028;50.974;4.968;2023-10-08T04:06:30;14.60;99.90
9975;DHT22;5028;50.974;4.968;2023-10-08T04:09:15;14.60;99.90
9975;DHT22;5028;50.974;4.968;2023-10-08T04:11:52;14.70;99.90
9975;DHT22;5028;50.974;4.968;2023-10-08T04:14:27;14.70;99.90
9975;DHT22;5028;50.974;4.968;2023-10-08T04:16:56;14.60;99.90
9975;DHT22;5028;50.974;4.968;2023-10-08T04:19:26;14.60;99.90
9975;DHT22;5028;50.974;4.968;2023-10-08T04:21:55;14.60;99.90
9975;DHT22;5028;50.974;4.968;2023-10-08T04:24:25;14.60;99.90
9975;DHT22;5028;50.974;4.968;2023-10-08T04:27:02;14.60;99.90
9975;DHT22;5028;50.974;4.968;2023-10-08T04:29:34;14.60;99.90
9975;DHT22;5028;50.974;4.968;2023-10-08T04:32:05;14.60;99.90
9975;DHT22;5028;50.974;4.968;2023-10-08T04:34:39;14.60;99.90
9975;DHT22;5028;50.974;4.968;2023-10-08T04:37:14;14.60;99.90
9975;DHT22;5028;50.974;4.968;2023-10-08T04:39:47;14.60;99.90
9975;DHT22;5028;50.974;4.968;2023-10-08T04:42:25;14.50;99.90
9975;DHT22;5028;50.974;4.968;2023-10-08T04:44:55;14.50;99.90
9975;DHT22;5028;50.974;4.968;2023-10-08T04:47:26;14.50;99.90
9975;DHT22;5028;50.974;4.968;2023-10-08T04:50:01;14.50;99.90
9975;DHT22;5028;50.974;4.968;2023-10-08T04:52:33;14.50;99.90
9975;DHT22;5028;50.974;4.968;2023-10-08T04:55:13;14.50;99.90
9975;DHT22;5028;50.974;4.968;2023-10-08T04:57:47;14.50;99.90
9975;DHT22;5028;50.974;4.968;2023-10-08T05:00:21;14.40;99.90
9975;DHT22;5028;50.974;4.968;2023-10-08T05:03:08;14.40;99.90
9975;DHT22;5028;50.974;4.968;2023-10-08T05:05:42;14.40;99.90
9975;DHT22;5028;50.974;4.968;2023-10-08T05:08:39;14.30;99.90
9975;DHT22;5028;50.974;4.968;2023-10-08T05:11:21;14.40;99.90
9975;DHT22;5028;50.974;4.968;2023-10-08T05:14:04;14.30;99.90
9975;DHT22;5028;50.974;4.968;2023-10-08T05:16:43;14.30;99.90
9975;DHT22;5028;50.974;4.968;2023-10-08T05:19:11;14.30;99.90
9975;DHT22;5028;50.974;4.968;2023-10-08T05:22:04;14.30;99.90
9975;DHT22;5028;50.974;4.968;2023-10-08T05:24:48;14.20;99.90
9975;DHT22;5028;50.974;4.968;2023-10-08T05:27:36;14.20;99.90
9975;DHT22;5028;50.974;4.968;2023-10-08T05:30:24;14.20;99.90
9975;DHT22;5028;50.974;4.968;2023-10-08T05:33:09;14.20;99.90
9975;DHT22;5028;50.974;4.968;2023-10-08T05:35:52;14.20;99.90
9975;DHT22;5028;50.974;4.968;2023-10-08T05:38:30;14.20;99.90
9975;DHT22;5028;50.974;4.968;2023-10-08T05:41:19;14.20;99.90
9975;DHT22;5028;50.974;4.968;2023-10-08T05:44:06;14.20;99.90
9975;DHT22;5028;50.974;4.968;2023-10-08T05:46:51;14.10;99.90
9975;DHT22;5028;50.974;4.968;2023-10-08T05:49:49;14.10;99.90
9975;DHT22;5028;50.974;4.968;2023-10-08T05:52:42;14.10;99.90
9975;DHT22;5028;50.974;4.968;2023-10-08T05:55:18;14.10;99.90
9975;DHT22;5028;50.974;4.968;2023-10-08T05:57:53;14.10;99.90
9975;DHT22;5028;50.974;4.968;2023-10-08T06:00:41;14.10;99.90
9975;DHT22;5028;50.974;4.968;2023-10-08T06:03:32;14.00;99.90
9975;DHT22;5028;50.974;4.968;2023-10-08T06:06:05;14.00;99.90
9975;DHT22;5028;50.974;4.968;2023-10-08T06:09:06;14.00;99.90
9975;DHT22;5028;50.974;4.968;2023-10-08T06:11:48;14.00;99.90
9975;DHT22;5028;50.974;4.968;2023-10-08T06:14:39;14.00;99.90
9975;DHT22;5028;50.974;4.968;2023-10-08T06:17:35;14.00;99.90
9975;DHT22;5028;50.974;4.968;2023-10-08T06:20:25;14.00;99.90
9975;DHT22;5028;50.974;4.968;2023-10-08T06:22:56;14.00;99.90
9975;DHT22;5028;50.974;4.968;2023-10-08T06:25:30;14.00;99.90
9975;DHT22;5028;50.974;4.968;2023-10-08T06:27:59;14.10;99.90
9975;DHT22;5028;50.974;4.968;2023-10-08T06:30:30;14.10;99.90
9975;DHT22;5028;50.974;4.968;2023-10-08T06:33:02;14.10;99.90
9975;DHT22;5028;50.974;4.968;2023-10-08T06:35:32;14.10;99.90
9975;DHT22;5028;50.974;4.968;2023-10-08T06:38:03;14.20;99.90
9975;DHT22;5028;50.974;4.968;2023-10-08T06:40:37;14.20;99.90
9975;DHT22;5028;50.974;4.968;2023-10-08T06:43:11;14.20;99.90
9975;DHT22;5028;50.974;4.968;2023-10-08T06:45:42;14.20;99.90
9975;DHT22;5028;50.974;4.968;2023-10-08T06:48:11;14.30;99.90
9975;DHT22;5028;50.974;4.968;2023-10-08T06:50:48;14.30;99.90
9975;DHT22;5028;50.974;4.968;2023-10-08T06:53:19;14.30;99.90
9975;DHT22;5028;50.974;4.968;2023-10-08T06:55:49;14.40;99.90
9975;DHT22;5028;50.974;4.968;2023-10-08T06:58:23;14.40;99.90
9975;DHT22;5028;50.974;4.968;2023-10-08T07:00:52;14.50;99.90
9975;DHT22;5028;50.974;4.968;2023-10-08T07:03:22;14.50;99.90
9975;DHT22;5028;50.974;4.968;2023-10-08T07:05:52;14.60;99.90
9975;DHT22;5028;50.974;4.968;2023-10-08T07:08:29;14.60;99.90
9975;DHT22;5028;50.974;4.968;2023-10-08T07:11:01;14.60;99.90
9975;DHT22;5028;50.974;4.968;2023-10-08T07:13:34;14.60;99.90
9975;DHT22;5028;50.974;4.968;2023-10-08T07:16:04;14.60;99.90
9975;DHT22;5028;50.974;4.968;2023-10-08T07:18:35;14.60;99.90
9975;DHT22;5028;50.974;4.968;2023-10-08T07:21:04;14.70;99.90
9975;DHT22;5028;50.974;4.968;2023-10-08T07:23:40;14.70;99.90
9975;DHT22;5028;50.974;4.968;2023-10-08T07:26:24;14.80;99.90
9975;DHT22;5028;50.974;4.968;2023-10-08T07:28:53;14.80;99.90
9975;DHT22;5028;50.974;4.968;2023-10-08T07:31:23;14.90;99.90
9975;DHT22;5028;50.974;4.968;2023-10-08T07:33:56;14.90;99.90
9975;DHT22;5028;50.974;4.968;2023-10-08T07:36:43;15.00;99.90
9975;DHT22;5028;50.974;4.968;2023-10-08T07:39:13;15.00;99.90
9975;DHT22;5028;50.974;4.968;2023-10-08T07:41:53;15.10;99.90
9975;DHT22;5028;50.974;4.968;2023-10-08T07:44:23;15.10;99.90
9975;DHT22;5028;50.974;4.968;2023-10-08T07:46:53;15.20;99.90
9975;DHT22;5028;50.974;4.968;2023-10-08T07:49:22;15.30;99.90
9975;DHT22;5028;50.974;4.968;2023-10-08T07:51:52;15.30;99.90
9975;DHT22;5028;50.974;4.968;2023-10-08T07:54:24;15.30;99.90
9975;DHT22;5028;50.974;4.968;2023-10-08T07:56:55;15.40;99.90
9975;DHT22;5028;50.974;4.968;2023-10-08T07:59:27;15.50;99.90
9975;DHT22;5028;50.974;4.968;2023-10-08T08:01:55;15.50;99.90
9975;DHT22;5028;50.974;4.968;2023-10-08T08:04:24;15.60;99.90
9975;DHT22;5028;50.974;4.968;2023-10-08T08:07:00;15.70;99.90
9975;DHT22;5028;50.974;4.968;2023-10-08T08:09:33;15.80;99.90
9975;DHT22;5028;50.974;4.968;2023-10-08T08:12:06;15.80;99.90
9975;DHT22;5028;50.974;4.968;2023-10-08T08:14:38;15.90;99.90
9975;DHT22;5028;50.974;4.968;2023-10-08T08:17:09;16.00;99.90
9975;DHT22;5028;50.974;4.968;2023-10-08T08:19:42;16.00;99.90
9975;DHT22;5028;50.974;4.968;2023-10-08T08:22:11;16.10;99.90
9975;DHT22;5028;50.974;4.968;2023-10-08T08:24:44;16.10;99.90
9975;DHT22;5028;50.974;4.968;2023-10-08T08:27:17;16.20;99.90
9975;DHT22;5028;50.974;4.968;2023-10-08T08:29:53;16.20;99.90
9975;DHT22;5028;50.974;4.968;2023-10-08T08:32:23;16.30;99.90
9975;DHT22;5028;50.974;4.968;2023-10-08T08:34:51;16.30;99.90
9975;DHT22;5028;50.974;4.968;2023-10-08T08:37:20;16.40;99.90
9975;DHT22;5028;50.974;4.968;2023-10-08T08:39:51;16.50;99.90
9975;DHT22;5028;50.974;4.968;2023-10-08T08:42:22;16.60;99.90
9975;DHT22;5028;50.974;4.968;2023-10-08T08:44:52;16.60;99.90
9975;DHT22;5028;50.974;4.968;2023-10-08T08:47:25;16.70;99.90
9975;DHT22;5028;50.974;4.968;2023-10-08T08:49:57;16.80;99.90
9975;DHT22;5028;50.974;4.968;2023-10-08T08:52:35;16.80;99.90
9975;DHT22;5028;50.974;4.968;2023-10-08T08:55:07;16.90;99.90
9975;DHT22;5028;50.974;4.968;2023-10-08T08:57:42;17.00;99.90
9975;DHT22;5028;50.974;4.968;2023-10-08T09:00:15;17.20;99.90
9975;DHT22;5028;50.974;4.968;2023-10-08T09:02:45;17.20;99.90
9975;DHT22;5028;50.974;4.968;2023-10-08T09:05:16;17.30;99.90
9975;DHT22;5028;50.974;4.968;2023-10-08T09:07:57;17.40;99.90
9975;DHT22;5028;50.974;4.968;2023-10-08T09:10:32;17.50;99.90
9975;DHT22;5028;50.974;4.968;2023-10-08T09:13:06;17.60;99.90
9975;DHT22;5028;50.974;4.968;2023-10-08T09:15:36;17.70;99.90
9975;DHT22;5028;50.974;4.968;2023-10-08T09:18:06;17.80;99.90
9975;DHT22;5028;50.974;4.968;2023-10-08T09:20:37;18.00;99.90
9975;DHT22;5028;50.974;4.968;2023-10-08T09:23:12;18.10;99.90
9975;DHT22;5028;50.974;4.968;2023-10-08T09:25:45;18.20;99.90
9975;DHT22;5028;50.974;4.968;2023-10-08T09:28:17;18.30;99.90
9975;DHT22;5028;50.974;4.968;2023-10-08T09:30:46;18.40;99.90
9975;DHT22;5028;50.974;4.968;2023-10-08T09:33:15;18.40;99.90
9975;DHT22;5028;50.974;4.968;2023-10-08T09:35:46;18.40;99.90
9975;DHT22;5028;50.974;4.968;2023-10-08T09:38:15;18.40;99.90
9975;DHT22;5028;50.974;4.968;2023-10-08T09:40:52;18.40;99.90
9975;DHT22;5028;50.974;4.968;2023-10-08T09:43:22;18.50;99.90
9975;DHT22;5028;50.974;4.968;2023-10-08T09:45:58;18.70;99.90
9975;DHT22;5028;50.974;4.968;2023-10-08T09:48:30;19.00;99.90
9975;DHT22;5028;50.974;4.968;2023-10-08T09:50:59;19.20;99.90
9975;DHT22;5028;50.974;4.968;2023-10-08T09:53:43;19.20;99.90
9975;DHT22;5028;50.974;4.968;2023-10-08T09:56:15;19.30;99.90
9975;DHT22;5028;50.974;4.968;2023-10-08T09:58:46;19.40;99.90
9975;DHT22;5028;50.974;4.968;2023-10-08T10:01:18;19.40;99.90
9975;DHT22;5028;50.974;4.968;2023-10-08T10:03:49;19.60;99.90
9975;DHT22;5028;50.974;4.968;2023-10-08T10:06:19;19.80;99.90
9975;DHT22;5028;50.974;4.968;2023-10-08T10:08:49;19.90;99.90
9975;DHT22;5028;50.974;4.968;2023-10-08T10:11:19;20.00;99.90
9975;DHT22;5028;50.974;4.968;2023-10-08T10:13:50;20.00;99.90
9975;DHT22;5028;50.974;4.968;2023-10-08T10:16:21;20.20;99.90
9975;DHT22;5028;50.974;4.968;2023-10-08T10:18:50;20.40;99.90
9975;DHT22;5028;50.974;4.968;2023-10-08T10:21:31;20.80;99.90
9975;DHT22;5028;50.974;4.968;2023-10-08T10:24:01;21.10;99.90
9975;DHT22;5028;50.974;4.968;2023-10-08T10:26:35;21.40;99.90
9975;DHT22;5028;50.974;4.968;2023-10-08T10:29:23;21.60;99.90
9975;DHT22;5028;50.974;4.968;2023-10-08T10:31:56;21.60;99.90
9975;DHT22;5028;50.974;4.968;2023-10-08T10:34:27;21.50;99.90
9975;DHT22;5028;50.974;4.968;2023-10-08T10:36:56;21.50;99.90
9975;DHT22;5028;50.974;4.968;2023-10-08T10:39:30;21.70;99.90
9975;DHT22;5028;50.974;4.968;2023-10-08T10:42:02;22.00;99.90
9975;DHT22;5028;50.974;4.968;2023-10-08T10:44:34;22.30;99.90
9975;DHT22;5028;50.974;4.968;2023-10-08T10:47:04;22.50;99.90
9975;DHT22;5028;50.974;4.968;2023-10-08T10:49:54;22.70;99.90
9975;DHT22;5028;50.974;4.968;2023-10-08T10:52:43;22.90;99.90
9975;DHT22;5028;50.974;4.968;2023-10-08T10:55:20;23.30;99.90
9975;DHT22;5028;50.974;4.968;2023-10-08T10:57:55;23.40;99.90
9975;DHT22;5028;50.974;4.968;2023-10-08T11:00:25;23.40;99.90
9975;DHT22;5028;50.974;4.968;2023-10-08T11:03:11;23.50;99.90
9975;DHT22;5028;50.974;4.968;2023-10-08T11:05:56;23.60;99.90
9975;DHT22;5028;50.974;4.968;2023-10-08T11:08:27;23.70;99.90
9975;DHT22;5028;50.974;4.968;2023-10-08T11:11:03;23.90;99.90
9975;DHT22;5028;50.974;4.968;2023-10-08T11:13:40;24.00;99.90
9975;DHT22;5028;50.974;4.968;2023-10-08T11:16:09;24.10;99.90
9975;DHT22;5028;50.974;4.968;2023-10-08T11:18:45;24.30;99.90
9975;DHT22;5028;50.974;4.968;2023-10-08T11:21:17;24.40;99.90
9975;DHT22;5028;50.974;4.968;2023-10-08T11:23:52;24.50;99.90
9975;DHT22;5028;50.974;4.968;2023-10-08T11:26:24;24.50;99.90
9975;DHT22;5028;50.974;4.968;2023-10-08T11:29:02;24.70;99.90
9975;DHT22;5028;50.974;4.968;2023-10-08T11:31:32;24.90;99.90
9975;DHT22;5028;50.974;4.968;2023-10-08T11:34:03;25.10;99.90
9975;DHT22;5028;50.974;4.968;2023-10-08T11:36:37;25.20;99.90
9975;DHT22;5028;50.974;4.968;2023-10-08T11:39:17;25.10;99.90
9975;DHT22;5028;50.974;4.968;2023-10-08T11:42:00;25.10;99.90
9975;DHT22;5028;50.974;4.968;2023-10-08T11:44:35;25.00;99.90
9975;DHT22;5028;50.974;4.968;2023-10-08T11:47:05;25.00;99.90
9975;DHT22;5028;50.974;4.968;2023-10-08T11:49:41;24.90;99.90
9975;DHT22;5028;50.974;4.968;2023-10-08T11:52:15;25.00;99.90
9975;DHT22;5028;50.974;4.968;2023-10-08T11:54:49;25.00;99.90
9975;DHT22;5028;50.974;4.968;2023-10-08T11:57:20;25.00;99.90
9975;DHT22;5028;50.974;4.968;2023-10-08T11:59:51;25.00;99.90
9975;DHT22;5028;50.974;4.968;2023-10-08T12:02:23;25.10;99.90
9975;DHT22;5028;50.974;4.968;2023-10-08T12:04:51;25.20;99.90
9975;DHT22;5028;50.974;4.968;2023-10-08T12:07:25;25.20;99.90
9975;DHT22;5028;50.974;4.968;2023-10-08T12:09:55;25.10;99.90
9975;DHT22;5028;50.974;4.968;2023-10-08T12:12:23;25.10;99.90
9975;DHT22;5028;50.974;4.968;2023-10-08T12:14:56;25.20;99.90
9975;DHT22;5028;50.974;4.968;2023-10-08T12:17:27;25.30;99.90
9975;DHT22;5028;50.974;4.968;2023-10-08T12:20:06;25.50;99.90
9975;DHT22;5028;50.974;4.968;2023-10-08T12:22:51;25.70;99.90
9975;DHT22;5028;50.974;4.968;2023-10-08T12:25:19;25.90;99.90
9975;DHT22;5028;50.974;4.968;2023-10-08T12:27:49;25.90;99.90
9975;DHT22;5028;50.974;4.968;2023-10-08T12:30:19;25.90;99.90
9975;DHT22;5028;50.974;4.968;2023-10-08T12:32:59;25.70;99.90
9975;DHT22;5028;50.974;4.968;2023-10-08T12:35:28;25.70;99.90
9975;DHT22;5028;50.974;4.968;2023-10-08T12:37:57;25.70;99.90
9975;DHT22;5028;50.974;4.968;2023-10-08T12:40:25;25.80;99.90
9975;DHT22;5028;50.974;4.968;2023-10-08T12:43:09;25.90;99.90
9975;DHT22;5028;50.974;4.968;2023-10-08T12:45:39;26.10;99.90
9975;DHT22;5028;50.974;4.968;2023-10-08T12:48:08;26.00;99.90
9975;DHT22;5028;50.974;4.968;2023-10-08T12:50:37;26.10;99.90
9975;DHT22;5028;50.974;4.968;2023-10-08T12:53:10;26.00;99.90
9975;DHT22;5028;50.974;4.968;2023-10-08T12:55:39;26.00;99.90
9975;DHT22;5028;50.974;4.968;2023-10-08T12:58:08;26.10;99.90
9975;DHT22;5028;50.974;4.968;2023-10-08T13:00:39;26.20;99.90
9975;DHT22;5028;50.974;4.968;2023-10-08T13:03:09;26.20;99.90
9975;DHT22;5028;50.974;4.968;2023-10-08T13:05:42;26.40;99.90
9975;DHT22;5028;50.974;4.968;2023-10-08T13:08:12;26.50;99.90
9975;DHT22;5028;50.974;4.968;2023-10-08T13:10:40;26.50;99.90
9975;DHT22;5028;50.974;4.968;2023-10-08T13:13:11;26.60;99.90
9975;DHT22;5028;50.974;4.968;2023-10-08T13:15:41;26.60;99.90
9975;DHT22;5028;50.974;4.968;2023-10-08T13:18:10;26.60;99.90
9975;DHT22;5028;50.974;4.968;2023-10-08T13:20:39;26.40;99.90
9975;DHT22;5028;50.974;4.968;2023-10-08T13:23:12;26.40;99.90
9975;DHT22;5028;50.974;4.968;2023-10-08T13:25:40;26.50;99.90
9975;DHT22;5028;50.974;4.968;2023-10-08T13:28:09;26.60;99.90
9975;DHT22;5028;50.974;4.968;2023-10-08T13:30:38;26.60;99.90
9975;DHT22;5028;50.974;4.968;2023-10-08T13:33:08;26.50;99.90
9975;DHT22;5028;50.974;4.968;2023-10-08T13:35:37;26.60;99.90
9975;DHT22;5028;50.974;4.968;2023-10-08T13:38:06;26.60;99.90
9975;DHT22;5028;50.974;4.968;2023-10-08T13:40:41;26.70;99.90
9975;DHT22;5028;50.974;4.968;2023-10-08T13:43:30;26.70;99.90
9975;DHT22;5028;50.974;4.968;2023-10-08T13:46:04;26.80;99.90
9975;DHT22;5028;50.974;4.968;2023-10-08T13:48:36;26.40;99.90
9975;DHT22;5028;50.974;4.968;2023-10-08T13:51:06;26.10;99.90
9975;DHT22;5028;50.974;4.968;2023-10-08T13:53:41;26.10;99.90
9975;DHT22;5028;50.974;4.968;2023-10-08T13:56:12;26.10;99.90
9975;DHT22;5028;50.974;4.968;2023-10-08T13:58:41;26.20;99.90
9975;DHT22;5028;50.974;4.968;2023-10-08T14:01:13;26.10;99.90
9975;DHT22;5028;50.974;4.968;2023-10-08T14:03:50;26.10;99.90
9975;DHT22;5028;50.974;4.968;2023-10-08T14:06:21;26.00;99.90
9975;DHT22;5028;50.974;4.968;2023-10-08T14:08:50;25.70;99.90
9975;DHT22;5028;50.974;4.968;2023-10-08T14:11:20;25.60;99.90
9975;DHT22;5028;50.974;4.968;2023-10-08T14:13:50;25.40;99.90
9975;DHT22;5028;50.974;4.968;2023-10-08T14:16:20;25.20;99.90
9975;DHT22;5028;50.974;4.968;2023-10-08T14:18:53;25.20;99.90
9975;DHT22;5028;50.974;4.968;2023-10-08T14:21:22;25.10;99.90
9975;DHT22;5028;50.974;4.968;2023-10-08T14:23:51;25.00;99.90
9975;DHT22;5028;50.974;4.968;2023-10-08T14:26:20;25.00;99.90
9975;DHT22;5028;50.974;4.968;2023-10-08T14:28:50;24.90;99.90
9975;DHT22;5028;50.974;4.968;2023-10-08T14:31:24;24.90;99.90
9975;DHT22;5028;50.974;4.968;2023-10-08T14:33:55;24.90;99.90
9975;DHT22;5028;50.974;4.968;2023-10-08T14:36:32;24.80;99.90
9975;DHT22;5028;50.974;4.968;2023-10-08T14:39:19;24.80;99.90
9975;DHT22;5028;50.974;4.968;2023-10-08T14:42:05;24.60;99.90
9975;DHT22;5028;50.974;4.968;2023-10-08T14:44:51;24.50;99.90
9975;DHT22;5028;50.974;4.968;2023-10-08T14:47:21;24.50;99.90
9975;DHT22;5028;50.974;4.968;2023-10-08T14:49:51;24.50;99.90
9975;DHT22;5028;50.974;4.968;2023-10-08T14:52:19;24.40;99.90
9975;DHT22;5028;50.974;4.968;2023-10-08T14:54:50;24.20;99.90
9975;DHT22;5028;50.974;4.968;2023-10-08T14:57:18;24.20;99.90
9975;DHT22;5028;50.974;4.968;2023-10-08T14:59:47;24.10;99.90
9975;DHT22;5028;50.974;4.968;2023-10-08T15:02:15;24.00;99.90
9975;DHT22;5028;50.974;4.968;2023-10-08T15:04:44;24.00;99.90
9975;DHT22;5028;50.974;4.968;2023-10-08T15:07:14;23.90;99.90
9975;DHT22;5028;50.974;4.968;2023-10-08T15:09:45;24.00;99.90
9975;DHT22;5028;50.974;4.968;2023-10-08T15:12:17;23.90;99.90
9975;DHT22;5028;50.974;4.968;2023-10-08T15:14:49;24.00;99.90
9975;DHT22;5028;50.974;4.968;2023-10-08T15:17:18;24.00;99.90
9975;DHT22;5028;50.974;4.968;2023-10-08T15:19:46;24.00;99.90
9975;DHT22;5028;50.974;4.968;2023-10-08T15:22:17;23.80;99.90
9975;DHT22;5028;50.974;4.968;2023-10-08T15:24:45;23.70;99.90
9975;DHT22;5028;50.974;4.968;2023-10-08T15:27:25;23.60;99.90
9975;DHT22;5028;50.974;4.968;2023-10-08T15:29:57;23.50;99.90
9975;DHT22;5028;50.974;4.968;2023-10-08T15:32:26;23.40;99.90
9975;DHT22;5028;50.974;4.968;2023-10-08T15:34:54;23.40;99.90
9975;DHT22;5028;50.974;4.968;2023-10-08T15:37:24;23.30;99.90
9975;DHT22;5028;50.974;4.968;2023-10-08T15:39:53;23.30;99.90
9975;DHT22;5028;50.974;4.968;2023-10-08T15:42:24;23.20;99.90
9975;DHT22;5028;50.974;4.968;2023-10-08T15:44:53;23.30;99.90
9975;DHT22;5028;50.974;4.968;2023-10-08T15:47:21;23.30;99.90
9975;DHT22;5028;50.974;4.968;2023-10-08T15:49:49;23.20;99.90
9975;DHT22;5028;50.974;4.968;2023-10-08T15:52:18;23.20;99.90
9975;DHT22;5028;50.974;4.968;2023-10-08T15:54:48;23.10;99.90
9975;DHT22;5028;50.974;4.968;2023-10-08T15:57:17;23.00;99.90
9975;DHT22;5028;50.974;4.968;2023-10-08T15:59:46;23.00;99.90
9975;DHT22;5028;50.974;4.968;2023-10-08T16:02:14;23.00;99.90
9975;DHT22;5028;50.974;4.968;2023-10-08T16:04:45;23.00;99.90
9975;DHT22;5028;50.974;4.968;2023-10-08T16:07:13;23.00;99.90
9975;DHT22;5028;50.974;4.968;2023-10-08T16:09:42;23.00;99.90
9975;DHT22;5028;50.974;4.968;2023-10-08T16:12:12;23.00;99.90
9975;DHT22;5028;50.974;4.968;2023-10-08T16:14:40;23.00;99.90
9975;DHT22;5028;50.974;4.968;2023-10-08T16:17:10;22.90;99.90
9975;DHT22;5028;50.974;4.968;2023-10-08T16:19:42;22.90;99.90
9975;DHT22;5028;50.974;4.968;2023-10-08T16:22:11;22.90;99.90
9975;DHT22;5028;50.974;4.968;2023-10-08T16:24:40;22.80;99.90
9975;DHT22;5028;50.974;4.968;2023-10-08T16:27:09;22.80;99.90
9975;DHT22;5028;50.974;4.968;2023-10-08T16:29:38;22.70;99.90
9975;DHT22;5028;50.974;4.968;2023-10-08T16:32:08;22.70;99.90
9975;DHT22;5028;50.974;4.968;2023-10-08T16:34:37;22.60;99.90
9975;DHT22;5028;50.974;4.968;2023-10-08T16:37:05;22.50;99.90
9975;DHT22;5028;50.974;4.968;2023-10-08T16:39:34;22.50;99.90
9975;DHT22;5028;50.974;4.968;2023-10-08T16:42:04;22.40;99.90